sensor_id;sensor_type;location;lat;lon;timestamp;P1;durP1;ratioP1;P2;durP2;ratioP2
60851;SDS011;48553;50.766;2.900;2023-09-30T00:02:06;10.40;;;3.42;;
60851;SDS011;48553;50.766;2.900;2023-09-30T00:05:06;9.93;;;3.13;;
60851;SDS011;48553;50.766;2.900;2023-09-30T00:08:08;11.38;;;2.92;;
60851;SDS011;48553;50.766;2.900;2023-09-30T00:11:09;9.60;;;2.97;;
60851;SDS011;48553;50.766;2.900;2023-09-30T00:14:09;9.23;;;2.80;;
60851;SDS011;48553;50.766;2.900;2023-09-30T00:17:10;10.80;;;3.20;;
60851;SDS011;48553;50.766;2.900;2023-09-30T00:20:10;10.85;;;2.90;;
60851;SDS011;48553;50.766;2.900;2023-09-30T00:23:11;9.27;;;2.78;;
60851;SDS011;48553;50.766;2.900;2023-09-30T00:26:12;7.68;;;2.80;;
60851;SDS011;48553;50.766;2.900;2023-09-30T00:29:12;8.60;;;2.78;;
60851;SDS011;48553;50.766;2.900;2023-09-30T00:32:13;10.20;;;3.03;;
60851;SDS011;48553;50.766;2.900;2023-09-30T00:35:13;7.85;;;2.95;;
60851;SDS011;48553;50.766;2.900;2023-09-30T00:38:14;9.40;;;2.80;;
60851;SDS011;48553;50.766;2.900;2023-09-30T00:41:14;11.02;;;3.45;;
60851;SDS011;48553;50.766;2.900;2023-09-30T00:44:15;9.48;;;2.75;;
60851;SDS011;48553;50.766;2.900;2023-09-30T00:47:15;8.75;;;2.67;;
60851;SDS011;48553;50.766;2.900;2023-09-30T00:50:16;7.65;;;2.75;;
60851;SDS011;48553;50.766;2.900;2023-09-30T00:53:19;11.68;;;3.20;;
60851;SDS011;48553;50.766;2.900;2023-09-30T00:56:20;10.25;;;2.80;;
60851;SDS011;48553;50.766;2.900;2023-09-30T00:59:24;8.68;;;2.90;;
60851;SDS011;48553;50.766;2.900;2023-09-30T01:02:26;10.95;;;3.28;;
60851;SDS011;48553;50.766;2.900;2023-09-30T01:05:27;11.52;;;3.30;;
60851;SDS011;48553;50.766;2.900;2023-09-30T01:08:27;15.50;;;3.45;;
60851;SDS011;48553;50.766;2.900;2023-09-30T01:11:27;8.10;;;3.08;;
60851;SDS011;48553;50.766;2.900;2023-09-30T01:14:29;11.25;;;3.17;;
60851;SDS011;48553;50.766;2.900;2023-09-30T01:17:34;9.35;;;3.33;;
60851;SDS011;48553;50.766;2.900;2023-09-30T01:20:35;10.30;;;3.40;;
60851;SDS011;48553;50.766;2.900;2023-09-30T01:23:36;11.60;;;3.47;;
60851;SDS011;48553;50.766;2.900;2023-09-30T01:26:36;11.32;;;3.42;;
60851;SDS011;48553;50.766;2.900;2023-09-30T01:29:36;10.25;;;3.30;;
60851;SDS011;48553;50.766;2.900;2023-09-30T01:32:40;11.27;;;3.25;;
60851;SDS011;48553;50.766;2.900;2023-09-30T01:35:40;13.93;;;3.83;;
60851;SDS011;48553;50.766;2.900;2023-09-30T01:38:40;7.68;;;2.70;;
60851;SDS011;48553;50.766;2.900;2023-09-30T01:41:41;11.23;;;3.13;;
60851;SDS011;48553;50.766;2.900;2023-09-30T01:44:41;14.85;;;3.50;;
60851;SDS011;48553;50.766;2.900;2023-09-30T01:47:41;12.25;;;3.30;;
60851;SDS011;48553;50.766;2.900;2023-09-30T01:50:42;10.90;;;3.05;;
60851;SDS011;48553;50.766;2.900;2023-09-30T01:53:42;11.10;;;3.00;;
60851;SDS011;48553;50.766;2.900;2023-09-30T01:56:43;11.18;;;2.92;;
60851;SDS011;48553;50.766;2.900;2023-09-30T01:59:43;8.43;;;3.35;;
60851;SDS011;48553;50.766;2.900;2023-09-30T02:02:43;11.27;;;3.55;;
60851;SDS011;48553;50.766;2.900;2023-09-30T02:05:44;9.90;;;3.15;;
60851;SDS011;48553;50.766;2.900;2023-09-30T02:08:44;10.77;;;3.20;;
60851;SDS011;48553;50.766;2.900;2023-09-30T02:11:45;11.32;;;3.33;;
60851;SDS011;48553;50.766;2.900;2023-09-30T02:14:45;9.90;;;3.08;;
60851;SDS011;48553;50.766;2.900;2023-09-30T02:17:46;14.45;;;3.40;;
60851;SDS011;48553;50.766;2.900;2023-09-30T02:20:48;10.32;;;3.10;;
60851;SDS011;48553;50.766;2.900;2023-09-30T02:23:50;9.10;;;2.97;;
60851;SDS011;48553;50.766;2.900;2023-09-30T02:26:54;15.13;;;3.33;;
60851;SDS011;48553;50.766;2.900;2023-09-30T02:29:55;10.23;;;3.20;;
60851;SDS011;48553;50.766;2.900;2023-09-30T02:32:56;10.15;;;2.95;;
60851;SDS011;48553;50.766;2.900;2023-09-30T02:35:57;11.57;;;3.00;;
60851;SDS011;48553;50.766;2.900;2023-09-30T02:38:57;10.25;;;3.13;;
60851;SDS011;48553;50.766;2.900;2023-09-30T02:41:58;11.23;;;3.20;;
60851;SDS011;48553;50.766;2.900;2023-09-30T02:45:02;10.77;;;3.13;;
60851;SDS011;48553;50.766;2.900;2023-09-30T02:48:03;12.60;;;3.75;;
60851;SDS011;48553;50.766;2.900;2023-09-30T02:51:04;12.15;;;3.20;;
60851;SDS011;48553;50.766;2.900;2023-09-30T02:54:04;10.68;;;3.03;;
60851;SDS011;48553;50.766;2.900;2023-09-30T02:57:05;12.35;;;3.10;;
60851;SDS011;48553;50.766;2.900;2023-09-30T03:00:06;10.07;;;2.80;;
60851;SDS011;48553;50.766;2.900;2023-09-30T03:03:23;9.55;;;2.85;;
60851;SDS011;48553;50.766;2.900;2023-09-30T03:06:25;11.63;;;3.10;;
60851;SDS011;48553;50.766;2.900;2023-09-30T03:09:26;10.43;;;2.90;;
60851;SDS011;48553;50.766;2.900;2023-09-30T03:12:26;11.23;;;2.88;;
60851;SDS011;48553;50.766;2.900;2023-09-30T03:15:27;14.05;;;3.10;;
60851;SDS011;48553;50.766;2.900;2023-09-30T03:18:28;11.30;;;3.22;;
60851;SDS011;48553;50.766;2.900;2023-09-30T03:21:30;9.55;;;2.95;;
60851;SDS011;48553;50.766;2.900;2023-09-30T03:24:31;10.40;;;3.10;;
60851;SDS011;48553;50.766;2.900;2023-09-30T03:27:32;11.55;;;3.00;;
60851;SDS011;48553;50.766;2.900;2023-09-30T03:30:33;10.90;;;3.25;;
60851;SDS011;48553;50.766;2.900;2023-09-30T03:33:35;9.05;;;2.85;;
60851;SDS011;48553;50.766;2.900;2023-09-30T03:36:35;15.18;;;3.13;;
60851;SDS011;48553;50.766;2.900;2023-09-30T03:39:36;12.60;;;3.10;;
60851;SDS011;48553;50.766;2.900;2023-09-30T03:42:36;9.73;;;3.25;;
60851;SDS011;48553;50.766;2.900;2023-09-30T03:45:36;15.98;;;3.20;;
60851;SDS011;48553;50.766;2.900;2023-09-30T03:48:39;9.35;;;2.97;;
60851;SDS011;48553;50.766;2.900;2023-09-30T03:51:40;12.80;;;3.10;;
60851;SDS011;48553;50.766;2.900;2023-09-30T03:54:41;11.10;;;2.80;;
60851;SDS011;48553;50.766;2.900;2023-09-30T03:57:41;11.45;;;2.90;;
60851;SDS011;48553;50.766;2.900;2023-09-30T04:00:42;14.27;;;2.97;;
60851;SDS011;48553;50.766;2.900;2023-09-30T04:03:42;9.68;;;3.00;;
60851;SDS011;48553;50.766;2.900;2023-09-30T04:06:43;11.75;;;3.50;;
60851;SDS011;48553;50.766;2.900;2023-09-30T04:09:43;9.48;;;3.20;;
60851;SDS011;48553;50.766;2.900;2023-09-30T04:12:44;7.35;;;3.03;;
60851;SDS011;48553;50.766;2.900;2023-09-30T04:15:44;9.82;;;3.20;;
60851;SDS011;48553;50.766;2.900;2023-09-30T04:18:46;9.50;;;3.33;;
60851;SDS011;48553;50.766;2.900;2023-09-30T04:21:47;8.02;;;3.00;;
60851;SDS011;48553;50.766;2.900;2023-09-30T04:24:47;9.23;;;3.38;;
60851;SDS011;48553;50.766;2.900;2023-09-30T04:27:50;7.50;;;3.13;;
60851;SDS011;48553;50.766;2.900;2023-09-30T04:30:51;6.97;;;2.88;;
60851;SDS011;48553;50.766;2.900;2023-09-30T04:33:51;7.40;;;3.30;;
60851;SDS011;48553;50.766;2.900;2023-09-30T04:36:51;7.60;;;2.95;;
60851;SDS011;48553;50.766;2.900;2023-09-30T04:39:52;6.65;;;3.03;;
60851;SDS011;48553;50.766;2.900;2023-09-30T04:42:53;6.30;;;2.85;;
60851;SDS011;48553;50.766;2.900;2023-09-30T04:45:58;8.55;;;3.15;;
60851;SDS011;48553;50.766;2.900;2023-09-30T04:48:59;8.40;;;2.70;;
60851;SDS011;48553;50.766;2.900;2023-09-30T04:51:59;7.38;;;2.90;;
60851;SDS011;48553;50.766;2.900;2023-09-30T04:55:00;6.35;;;3.10;;
60851;SDS011;48553;50.766;2.900;2023-09-30T04:58:01;7.82;;;3.33;;
60851;SDS011;48553;50.766;2.900;2023-09-30T05:01:01;9.00;;;3.47;;
60851;SDS011;48553;50.766;2.900;2023-09-30T05:04:02;8.18;;;3.45;;
60851;SDS011;48553;50.766;2.900;2023-09-30T05:07:02;7.00;;;3.28;;
60851;SDS011;48553;50.766;2.900;2023-09-30T05:10:03;7.10;;;3.22;;
60851;SDS011;48553;50.766;2.900;2023-09-30T05:13:10;8.40;;;3.70;;
60851;SDS011;48553;50.766;2.900;2023-09-30T05:16:12;7.28;;;3.28;;
60851;SDS011;48553;50.766;2.900;2023-09-30T05:19:13;7.55;;;3.25;;
60851;SDS011;48553;50.766;2.900;2023-09-30T05:22:13;7.70;;;3.60;;
60851;SDS011;48553;50.766;2.900;2023-09-30T05:25:15;7.35;;;3.20;;
60851;SDS011;48553;50.766;2.900;2023-09-30T05:28:17;7.25;;;3.38;;
60851;SDS011;48553;50.766;2.900;2023-09-30T05:31:18;6.05;;;3.00;;
60851;SDS011;48553;50.766;2.900;2023-09-30T05:34:18;6.72;;;3.00;;
60851;SDS011;48553;50.766;2.900;2023-09-30T05:37:19;6.55;;;2.92;;
60851;SDS011;48553;50.766;2.900;2023-09-30T05:40:21;8.35;;;2.97;;
60851;SDS011;48553;50.766;2.900;2023-09-30T05:43:25;6.82;;;2.60;;
60851;SDS011;48553;50.766;2.900;2023-09-30T05:46:27;7.38;;;3.20;;
60851;SDS011;48553;50.766;2.900;2023-09-30T05:49:27;7.80;;;2.95;;
60851;SDS011;48553;50.766;2.900;2023-09-30T05:52:27;6.72;;;2.72;;
60851;SDS011;48553;50.766;2.900;2023-09-30T05:55:28;5.15;;;2.28;;
60851;SDS011;48553;50.766;2.900;2023-09-30T05:58:29;6.25;;;2.45;;
60851;SDS011;48553;50.766;2.900;2023-09-30T06:01:29;7.95;;;3.30;;
60851;SDS011;48553;50.766;2.900;2023-09-30T06:04:30;7.55;;;2.83;;
60851;SDS011;48553;50.766;2.900;2023-09-30T06:07:30;6.00;;;2.70;;
60851;SDS011;48553;50.766;2.900;2023-09-30T06:10:31;7.60;;;2.40;;
60851;SDS011;48553;50.766;2.900;2023-09-30T06:13:34;6.47;;;2.78;;
60851;SDS011;48553;50.766;2.900;2023-09-30T06:16:34;7.57;;;2.58;;
60851;SDS011;48553;50.766;2.900;2023-09-30T06:19:35;6.38;;;2.53;;
60851;SDS011;48553;50.766;2.900;2023-09-30T06:22:35;7.80;;;2.58;;
60851;SDS011;48553;50.766;2.900;2023-09-30T06:25:35;6.85;;;2.72;;
60851;SDS011;48553;50.766;2.900;2023-09-30T06:28:36;7.03;;;2.70;;
60851;SDS011;48553;50.766;2.900;2023-09-30T06:31:40;7.30;;;2.78;;
60851;SDS011;48553;50.766;2.900;2023-09-30T06:34:41;10.25;;;2.55;;
60851;SDS011;48553;50.766;2.900;2023-09-30T06:37:41;8.23;;;2.33;;
60851;SDS011;48553;50.766;2.900;2023-09-30T06:40:43;6.57;;;2.45;;
60851;SDS011;48553;50.766;2.900;2023-09-30T06:43:43;7.57;;;2.80;;
60851;SDS011;48553;50.766;2.900;2023-09-30T06:46:44;9.75;;;3.00;;
60851;SDS011;48553;50.766;2.900;2023-09-30T06:49:45;7.35;;;2.75;;
60851;SDS011;48553;50.766;2.900;2023-09-30T06:52:46;6.68;;;2.97;;
60851;SDS011;48553;50.766;2.900;2023-09-30T06:55:49;8.18;;;3.95;;
60851;SDS011;48553;50.766;2.900;2023-09-30T06:58:51;10.98;;;4.40;;
60851;SDS011;48553;50.766;2.900;2023-09-30T07:01:51;9.50;;;3.90;;
60851;SDS011;48553;50.766;2.900;2023-09-30T07:04:52;8.88;;;4.10;;
60851;SDS011;48553;50.766;2.900;2023-09-30T07:07:53;10.23;;;3.95;;
60851;SDS011;48553;50.766;2.900;2023-09-30T07:10:53;8.63;;;3.67;;
60851;SDS011;48553;50.766;2.900;2023-09-30T07:13:54;9.23;;;3.65;;
60851;SDS011;48553;50.766;2.900;2023-09-30T07:16:54;9.25;;;3.58;;
60851;SDS011;48553;50.766;2.900;2023-09-30T07:19:55;12.00;;;3.40;;
60851;SDS011;48553;50.766;2.900;2023-09-30T07:22:55;7.97;;;3.25;;
60851;SDS011;48553;50.766;2.900;2023-09-30T07:25:55;11.10;;;3.22;;
60851;SDS011;48553;50.766;2.900;2023-09-30T07:28:57;10.45;;;3.17;;
60851;SDS011;48553;50.766;2.900;2023-09-30T07:31:58;9.70;;;3.35;;
60851;SDS011;48553;50.766;2.900;2023-09-30T07:34:58;9.07;;;3.47;;
60851;SDS011;48553;50.766;2.900;2023-09-30T07:37:59;8.32;;;3.03;;
60851;SDS011;48553;50.766;2.900;2023-09-30T07:41:00;12.20;;;3.15;;
60851;SDS011;48553;50.766;2.900;2023-09-30T07:44:00;8.75;;;3.15;;
60851;SDS011;48553;50.766;2.900;2023-09-30T07:47:01;9.93;;;3.15;;
60851;SDS011;48553;50.766;2.900;2023-09-30T07:50:03;10.98;;;3.00;;
60851;SDS011;48553;50.766;2.900;2023-09-30T07:53:09;14.77;;;3.30;;
60851;SDS011;48553;50.766;2.900;2023-09-30T07:56:12;8.65;;;2.95;;
60851;SDS011;48553;50.766;2.900;2023-09-30T07:59:14;8.68;;;2.95;;
60851;SDS011;48553;50.766;2.900;2023-09-30T08:02:15;7.57;;;2.90;;
60851;SDS011;48553;50.766;2.900;2023-09-30T08:05:16;9.57;;;3.00;;
60851;SDS011;48553;50.766;2.900;2023-09-30T08:08:17;8.10;;;2.90;;
60851;SDS011;48553;50.766;2.900;2023-09-30T08:11:17;12.90;;;3.25;;
60851;SDS011;48553;50.766;2.900;2023-09-30T08:14:20;8.25;;;3.15;;
60851;SDS011;48553;50.766;2.900;2023-09-30T08:17:21;12.52;;;3.17;;
60851;SDS011;48553;50.766;2.900;2023-09-30T08:20:21;9.45;;;3.05;;
60851;SDS011;48553;50.766;2.900;2023-09-30T08:23:21;8.60;;;3.05;;
60851;SDS011;48553;50.766;2.900;2023-09-30T08:26:22;13.52;;;3.33;;
60851;SDS011;48553;50.766;2.900;2023-09-30T08:29:23;11.13;;;3.38;;
60851;SDS011;48553;50.766;2.900;2023-09-30T08:32:23;10.57;;;3.22;;
60851;SDS011;48553;50.766;2.900;2023-09-30T08:35:24;10.93;;;3.35;;
60851;SDS011;48553;50.766;2.900;2023-09-30T08:38:25;12.13;;;3.50;;
60851;SDS011;48553;50.766;2.900;2023-09-30T08:41:35;9.90;;;3.30;;
60851;SDS011;48553;50.766;2.900;2023-09-30T08:44:36;11.48;;;3.38;;
60851;SDS011;48553;50.766;2.900;2023-09-30T08:47:38;12.27;;;3.47;;
60851;SDS011;48553;50.766;2.900;2023-09-30T08:50:40;13.52;;;2.92;;
60851;SDS011;48553;50.766;2.900;2023-09-30T08:53:42;11.27;;;3.35;;
60851;SDS011;48553;50.766;2.900;2023-09-30T08:56:44;9.85;;;2.80;;
60851;SDS011;48553;50.766;2.900;2023-09-30T08:59:49;10.77;;;3.00;;
60851;SDS011;48553;50.766;2.900;2023-09-30T09:02:50;10.85;;;3.20;;
60851;SDS011;48553;50.766;2.900;2023-09-30T09:05:54;11.43;;;2.88;;
60851;SDS011;48553;50.766;2.900;2023-09-30T09:09:12;7.88;;;2.90;;
60851;SDS011;48553;50.766;2.900;2023-09-30T09:12:19;10.27;;;3.00;;
60851;SDS011;48553;50.766;2.900;2023-09-30T09:15:21;8.80;;;2.80;;
60851;SDS011;48553;50.766;2.900;2023-09-30T09:18:32;7.13;;;2.80;;
60851;SDS011;48553;50.766;2.900;2023-09-30T09:21:36;7.63;;;3.03;;
60851;SDS011;48553;50.766;2.900;2023-09-30T09:24:37;7.78;;;3.30;;
60851;SDS011;48553;50.766;2.900;2023-09-30T09:27:39;9.88;;;2.92;;
60851;SDS011;48553;50.766;2.900;2023-09-30T09:30:39;10.77;;;3.08;;
60851;SDS011;48553;50.766;2.900;2023-09-30T09:33:41;12.80;;;2.95;;
60851;SDS011;48553;50.766;2.900;2023-09-30T09:36:42;9.60;;;2.88;;
60851;SDS011;48553;50.766;2.900;2023-09-30T09:39:50;10.95;;;2.90;;
60851;SDS011;48553;50.766;2.900;2023-09-30T09:42:56;8.82;;;2.65;;
60851;SDS011;48553;50.766;2.900;2023-09-30T09:45:57;10.50;;;3.03;;
60851;SDS011;48553;50.766;2.900;2023-09-30T09:48:58;9.15;;;2.53;;
60851;SDS011;48553;50.766;2.900;2023-09-30T09:51:58;10.73;;;2.67;;
60851;SDS011;48553;50.766;2.900;2023-09-30T09:55:01;5.80;;;2.17;;
60851;SDS011;48553;50.766;2.900;2023-09-30T09:58:02;9.32;;;2.63;;
60851;SDS011;48553;50.766;2.900;2023-09-30T10:01:08;9.23;;;2.35;;
60851;SDS011;48553;50.766;2.900;2023-09-30T10:04:13;7.78;;;2.60;;
60851;SDS011;48553;50.766;2.900;2023-09-30T10:07:36;7.57;;;2.00;;
60851;SDS011;48553;50.766;2.900;2023-09-30T10:10:40;7.28;;;2.20;;
60851;SDS011;48553;50.766;2.900;2023-09-30T10:13:50;8.90;;;2.20;;
60851;SDS011;48553;50.766;2.900;2023-09-30T10:16:55;9.07;;;2.20;;
60851;SDS011;48553;50.766;2.900;2023-09-30T10:20:05;7.82;;;2.10;;
60851;SDS011;48553;50.766;2.900;2023-09-30T10:23:25;6.47;;;2.00;;
60851;SDS011;48553;50.766;2.900;2023-09-30T10:26:27;9.25;;;2.10;;
60851;SDS011;48553;50.766;2.900;2023-09-30T10:29:38;8.05;;;2.00;;
60851;SDS011;48553;50.766;2.900;2023-09-30T10:35:50;5.63;;;1.77;;
60851;SDS011;48553;50.766;2.900;2023-09-30T10:38:52;6.93;;;1.90;;
60851;SDS011;48553;50.766;2.900;2023-09-30T10:41:53;4.95;;;1.38;;
60851;SDS011;48553;50.766;2.900;2023-09-30T10:44:54;6.57;;;1.83;;
60851;SDS011;48553;50.766;2.900;2023-09-30T10:47:54;8.60;;;1.77;;
60851;SDS011;48553;50.766;2.900;2023-09-30T10:50:55;10.32;;;1.80;;
60851;SDS011;48553;50.766;2.900;2023-09-30T10:54:00;7.72;;;1.88;;
60851;SDS011;48553;50.766;2.900;2023-09-30T10:57:02;7.40;;;1.98;;
60851;SDS011;48553;50.766;2.900;2023-09-30T11:00:06;4.78;;;1.45;;
60851;SDS011;48553;50.766;2.900;2023-09-30T11:03:10;8.45;;;1.77;;
60851;SDS011;48553;50.766;2.900;2023-09-30T11:06:15;7.57;;;1.73;;
60851;SDS011;48553;50.766;2.900;2023-09-30T11:09:21;5.82;;;1.48;;
60851;SDS011;48553;50.766;2.900;2023-09-30T11:12:22;10.05;;;1.58;;
60851;SDS011;48553;50.766;2.900;2023-09-30T11:15:24;8.68;;;1.30;;
60851;SDS011;48553;50.766;2.900;2023-09-30T11:18:24;5.68;;;1.38;;
60851;SDS011;48553;50.766;2.900;2023-09-30T11:21:25;7.43;;;1.67;;
60851;SDS011;48553;50.766;2.900;2023-09-30T11:24:26;8.80;;;1.73;;
60851;SDS011;48553;50.766;2.900;2023-09-30T11:27:28;9.15;;;1.80;;
60851;SDS011;48553;50.766;2.900;2023-09-30T11:30:31;6.72;;;1.60;;
60851;SDS011;48553;50.766;2.900;2023-09-30T11:33:31;10.23;;;1.80;;
60851;SDS011;48553;50.766;2.900;2023-09-30T11:37:06;8.75;;;1.80;;
60851;SDS011;48553;50.766;2.900;2023-09-30T11:40:11;8.43;;;1.95;;
60851;SDS011;48553;50.766;2.900;2023-09-30T11:43:13;6.25;;;1.60;;
60851;SDS011;48553;50.766;2.900;2023-09-30T11:46:14;8.93;;;1.80;;
60851;SDS011;48553;50.766;2.900;2023-09-30T11:49:23;6.57;;;1.27;;
60851;SDS011;48553;50.766;2.900;2023-09-30T11:52:38;7.03;;;1.75;;
60851;SDS011;48553;50.766;2.900;2023-09-30T11:55:40;6.60;;;1.65;;
60851;SDS011;48553;50.766;2.900;2023-09-30T11:58:41;8.27;;;1.85;;
60851;SDS011;48553;50.766;2.900;2023-09-30T12:01:41;8.90;;;1.90;;
60851;SDS011;48553;50.766;2.900;2023-09-30T12:04:43;6.05;;;1.70;;
60851;SDS011;48553;50.766;2.900;2023-09-30T12:07:45;8.23;;;1.90;;
60851;SDS011;48553;50.766;2.900;2023-09-30T12:10:48;7.30;;;1.95;;
60851;SDS011;48553;50.766;2.900;2023-09-30T12:13:49;5.93;;;1.60;;
60851;SDS011;48553;50.766;2.900;2023-09-30T12:16:50;7.88;;;2.10;;
60851;SDS011;48553;50.766;2.900;2023-09-30T12:19:50;5.68;;;1.88;;
60851;SDS011;48553;50.766;2.900;2023-09-30T12:22:51;9.40;;;2.13;;
60851;SDS011;48553;50.766;2.900;2023-09-30T12:25:53;6.10;;;2.10;;
60851;SDS011;48553;50.766;2.900;2023-09-30T12:28:55;8.45;;;1.75;;
60851;SDS011;48553;50.766;2.900;2023-09-30T12:31:55;12.48;;;3.72;;
60851;SDS011;48553;50.766;2.900;2023-09-30T12:34:56;9.63;;;2.75;;
60851;SDS011;48553;50.766;2.900;2023-09-30T12:37:56;6.60;;;2.80;;
60851;SDS011;48553;50.766;2.900;2023-09-30T12:40:56;10.07;;;3.88;;
60851;SDS011;48553;50.766;2.900;2023-09-30T12:43:57;9.15;;;2.88;;
60851;SDS011;48553;50.766;2.900;2023-09-30T12:46:58;7.88;;;3.22;;
60851;SDS011;48553;50.766;2.900;2023-09-30T12:49:58;7.10;;;2.63;;
60851;SDS011;48553;50.766;2.900;2023-09-30T12:52:58;9.25;;;2.85;;
60851;SDS011;48553;50.766;2.900;2023-09-30T12:55:59;8.63;;;1.98;;
60851;SDS011;48553;50.766;2.900;2023-09-30T12:59:00;8.43;;;3.20;;
60851;SDS011;48553;50.766;2.900;2023-09-30T13:02:00;8.82;;;2.30;;
60851;SDS011;48553;50.766;2.900;2023-09-30T13:05:01;10.00;;;2.78;;
60851;SDS011;48553;50.766;2.900;2023-09-30T13:08:01;10.07;;;3.75;;
60851;SDS011;48553;50.766;2.900;2023-09-30T13:11:02;8.32;;;2.13;;
60851;SDS011;48553;50.766;2.900;2023-09-30T13:14:03;8.52;;;2.35;;
60851;SDS011;48553;50.766;2.900;2023-09-30T13:17:04;6.18;;;2.10;;
60851;SDS011;48553;50.766;2.900;2023-09-30T13:20:04;6.50;;;1.58;;
60851;SDS011;48553;50.766;2.900;2023-09-30T13:23:05;8.95;;;1.80;;
60851;SDS011;48553;50.766;2.900;2023-09-30T13:26:05;10.05;;;1.90;;
60851;SDS011;48553;50.766;2.900;2023-09-30T13:29:06;8.52;;;1.60;;
60851;SDS011;48553;50.766;2.900;2023-09-30T13:32:09;7.13;;;1.67;;
60851;SDS011;48553;50.766;2.900;2023-09-30T13:35:10;8.00;;;1.75;;
60851;SDS011;48553;50.766;2.900;2023-09-30T13:38:11;8.50;;;2.05;;
60851;SDS011;48553;50.766;2.900;2023-09-30T13:41:11;7.85;;;2.20;;
60851;SDS011;48553;50.766;2.900;2023-09-30T13:44:15;8.48;;;2.13;;
60851;SDS011;48553;50.766;2.900;2023-09-30T13:47:16;7.90;;;2.03;;
60851;SDS011;48553;50.766;2.900;2023-09-30T13:50:16;7.20;;;1.75;;
60851;SDS011;48553;50.766;2.900;2023-09-30T13:53:17;12.38;;;2.00;;
60851;SDS011;48553;50.766;2.900;2023-09-30T13:56:17;8.57;;;2.00;;
60851;SDS011;48553;50.766;2.900;2023-09-30T13:59:18;9.73;;;1.55;;
60851;SDS011;48553;50.766;2.900;2023-09-30T14:02:18;7.57;;;1.65;;
60851;SDS011;48553;50.766;2.900;2023-09-30T14:05:19;10.35;;;2.53;;
60851;SDS011;48553;50.766;2.900;2023-09-30T14:08:20;11.90;;;1.83;;
60851;SDS011;48553;50.766;2.900;2023-09-30T14:11:20;9.23;;;1.50;;
60851;SDS011;48553;50.766;2.900;2023-09-30T14:14:21;7.38;;;1.73;;
60851;SDS011;48553;50.766;2.900;2023-09-30T14:17:21;10.10;;;1.80;;
60851;SDS011;48553;50.766;2.900;2023-09-30T14:20:21;7.38;;;1.73;;
60851;SDS011;48553;50.766;2.900;2023-09-30T14:23:23;9.75;;;1.92;;
60851;SDS011;48553;50.766;2.900;2023-09-30T14:26:24;7.10;;;1.65;;
60851;SDS011;48553;50.766;2.900;2023-09-30T14:29:24;8.63;;;1.65;;
60851;SDS011;48553;50.766;2.900;2023-09-30T14:32:25;6.00;;;1.45;;
60851;SDS011;48553;50.766;2.900;2023-09-30T14:35:25;6.53;;;1.80;;
60851;SDS011;48553;50.766;2.900;2023-09-30T14:38:26;6.47;;;1.63;;
60851;SDS011;48553;50.766;2.900;2023-09-30T14:41:26;6.82;;;2.03;;
60851;SDS011;48553;50.766;2.900;2023-09-30T14:44:27;6.75;;;1.60;;
60851;SDS011;48553;50.766;2.900;2023-09-30T14:47:27;7.05;;;1.83;;
60851;SDS011;48553;50.766;2.900;2023-09-30T14:50:28;9.43;;;1.85;;
60851;SDS011;48553;50.766;2.900;2023-09-30T14:53:28;7.40;;;1.58;;
60851;SDS011;48553;50.766;2.900;2023-09-30T14:56:28;7.72;;;1.80;;
60851;SDS011;48553;50.766;2.900;2023-09-30T14:59:32;7.10;;;1.77;;
60851;SDS011;48553;50.766;2.900;2023-09-30T15:02:33;5.22;;;1.52;;
60851;SDS011;48553;50.766;2.900;2023-09-30T15:05:33;7.38;;;1.60;;
60851;SDS011;48553;50.766;2.900;2023-09-30T15:08:33;6.85;;;1.70;;
60851;SDS011;48553;50.766;2.900;2023-09-30T15:11:34;7.55;;;1.80;;
60851;SDS011;48553;50.766;2.900;2023-09-30T15:14:34;5.57;;;1.45;;
60851;SDS011;48553;50.766;2.900;2023-09-30T15:17:35;7.75;;;1.70;;
60851;SDS011;48553;50.766;2.900;2023-09-30T15:20:38;7.57;;;1.88;;
60851;SDS011;48553;50.766;2.900;2023-09-30T15:23:40;10.40;;;1.70;;
60851;SDS011;48553;50.766;2.900;2023-09-30T15:26:41;8.18;;;1.92;;
60851;SDS011;48553;50.766;2.900;2023-09-30T15:29:41;8.00;;;1.73;;
60851;SDS011;48553;50.766;2.900;2023-09-30T15:32:41;5.28;;;1.65;;
60851;SDS011;48553;50.766;2.900;2023-09-30T15:35:42;7.32;;;1.92;;
60851;SDS011;48553;50.766;2.900;2023-09-30T15:38:42;8.52;;;1.80;;
60851;SDS011;48553;50.766;2.900;2023-09-30T15:41:43;7.10;;;1.80;;
60851;SDS011;48553;50.766;2.900;2023-09-30T15:44:43;5.93;;;1.80;;
60851;SDS011;48553;50.766;2.900;2023-09-30T15:47:44;6.85;;;1.80;;
60851;SDS011;48553;50.766;2.900;2023-09-30T15:50:44;9.85;;;1.65;;
60851;SDS011;48553;50.766;2.900;2023-09-30T15:53:45;7.18;;;1.70;;
60851;SDS011;48553;50.766;2.900;2023-09-30T15:56:45;8.73;;;1.90;;
60851;SDS011;48553;50.766;2.900;2023-09-30T15:59:46;8.13;;;2.05;;
60851;SDS011;48553;50.766;2.900;2023-09-30T16:02:47;6.25;;;2.65;;
60851;SDS011;48553;50.766;2.900;2023-09-30T16:05:47;8.52;;;2.22;;
60851;SDS011;48553;50.766;2.900;2023-09-30T16:08:48;10.75;;;3.10;;
60851;SDS011;48553;50.766;2.900;2023-09-30T16:11:48;8.52;;;2.80;;
60851;SDS011;48553;50.766;2.900;2023-09-30T16:14:49;6.68;;;1.90;;
60851;SDS011;48553;50.766;2.900;2023-09-30T16:17:49;7.07;;;1.70;;
60851;SDS011;48553;50.766;2.900;2023-09-30T16:20:50;9.13;;;1.63;;
60851;SDS011;48553;50.766;2.900;2023-09-30T16:23:50;6.57;;;1.85;;
60851;SDS011;48553;50.766;2.900;2023-09-30T16:26:50;6.45;;;1.33;;
60851;SDS011;48553;50.766;2.900;2023-09-30T16:29:51;7.93;;;1.50;;
60851;SDS011;48553;50.766;2.900;2023-09-30T16:32:51;9.90;;;1.90;;
60851;SDS011;48553;50.766;2.900;2023-09-30T16:35:52;7.28;;;1.70;;
60851;SDS011;48553;50.766;2.900;2023-09-30T16:38:54;5.95;;;1.42;;
60851;SDS011;48553;50.766;2.900;2023-09-30T16:41:54;5.85;;;1.45;;
60851;SDS011;48553;50.766;2.900;2023-09-30T16:44:55;6.97;;;1.65;;
60851;SDS011;48553;50.766;2.900;2023-09-30T16:47:55;9.60;;;1.65;;
60851;SDS011;48553;50.766;2.900;2023-09-30T16:50:56;6.43;;;1.30;;
60851;SDS011;48553;50.766;2.900;2023-09-30T16:53:57;8.32;;;1.85;;
60851;SDS011;48553;50.766;2.900;2023-09-30T16:56:57;6.00;;;1.70;;
60851;SDS011;48553;50.766;2.900;2023-09-30T16:59:58;6.93;;;1.67;;
60851;SDS011;48553;50.766;2.900;2023-09-30T17:02:59;7.28;;;1.70;;
60851;SDS011;48553;50.766;2.900;2023-09-30T17:05:59;7.72;;;1.70;;
60851;SDS011;48553;50.766;2.900;2023-09-30T17:09:00;7.90;;;1.65;;
60851;SDS011;48553;50.766;2.900;2023-09-30T17:12:00;8.82;;;1.58;;
60851;SDS011;48553;50.766;2.900;2023-09-30T17:15:01;6.20;;;1.77;;
60851;SDS011;48553;50.766;2.900;2023-09-30T17:18:02;7.07;;;1.77;;
60851;SDS011;48553;50.766;2.900;2023-09-30T17:21:03;4.03;;;1.45;;
60851;SDS011;48553;50.766;2.900;2023-09-30T17:24:04;7.07;;;1.52;;
60851;SDS011;48553;50.766;2.900;2023-09-30T17:27:04;6.78;;;1.77;;
60851;SDS011;48553;50.766;2.900;2023-09-30T17:30:05;5.53;;;1.50;;
60851;SDS011;48553;50.766;2.900;2023-09-30T17:33:06;5.70;;;1.83;;
60851;SDS011;48553;50.766;2.900;2023-09-30T17:36:07;8.40;;;1.75;;
60851;SDS011;48553;50.766;2.900;2023-09-30T17:39:08;6.53;;;1.70;;
60851;SDS011;48553;50.766;2.900;2023-09-30T17:42:08;5.10;;;1.70;;
60851;SDS011;48553;50.766;2.900;2023-09-30T17:45:09;9.43;;;2.00;;
60851;SDS011;48553;50.766;2.900;2023-09-30T17:48:10;6.68;;;1.65;;
60851;SDS011;48553;50.766;2.900;2023-09-30T17:51:12;5.85;;;1.67;;
60851;SDS011;48553;50.766;2.900;2023-09-30T17:54:14;7.20;;;1.95;;
60851;SDS011;48553;50.766;2.900;2023-09-30T17:57:15;6.45;;;1.73;;
60851;SDS011;48553;50.766;2.900;2023-09-30T18:00:16;7.15;;;1.67;;
60851;SDS011;48553;50.766;2.900;2023-09-30T18:03:17;6.13;;;1.60;;
60851;SDS011;48553;50.766;2.900;2023-09-30T18:06:18;6.88;;;1.98;;
60851;SDS011;48553;50.766;2.900;2023-09-30T18:09:18;7.53;;;1.85;;
60851;SDS011;48553;50.766;2.900;2023-09-30T18:12:19;5.35;;;1.77;;